sensor_id;sensor_type;location;lat;lon;timestamp;P1;durP1;ratioP1;P2;durP2;ratioP2
65924;SDS011;66010;52.084;5.412;2023-11-21T00:00:47;6.47;;;3.10;;
65924;SDS011;66010;52.084;5.412;2023-11-21T00:03:14;6.22;;;2.88;;
65924;SDS011;66010;52.084;5.412;2023-11-21T00:05:41;6.85;;;3.00;;
65924;SDS011;66010;52.084;5.412;2023-11-21T00:08:08;7.13;;;3.30;;
65924;SDS011;66010;52.084;5.412;2023-11-21T00:10:34;7.80;;;2.95;;
65924;SDS011;66010;52.084;5.412;2023-11-21T00:13:01;6.45;;;3.17;;
65924;SDS011;66010;52.084;5.412;2023-11-21T00:15:29;6.53;;;3.08;;
65924;SDS011;66010;52.084;5.412;2023-11-21T00:17:55;6.43;;;3.05;;
65924;SDS011;66010;52.084;5.412;2023-11-21T00:20:22;6.43;;;2.83;;
65924;SDS011;66010;52.084;5.412;2023-11-21T00:22:48;6.68;;;2.95;;
65924;SDS011;66010;52.084;5.412;2023-11-21T00:25:15;6.80;;;3.10;;
65924;SDS011;66010;52.084;5.412;2023-11-21T00:27:43;6.35;;;2.83;;
65924;SDS011;66010;52.084;5.412;2023-11-21T00:30:10;7.18;;;2.78;;
65924;SDS011;66010;52.084;5.412;2023-11-21T00:32:38;6.38;;;2.90;;
65924;SDS011;66010;52.084;5.412;2023-11-21T00:35:04;6.60;;;2.53;;
65924;SDS011;66010;52.084;5.412;2023-11-21T00:37:32;6.20;;;2.80;;
65924;SDS011;66010;52.084;5.412;2023-11-21T00:39:58;6.78;;;3.00;;
65924;SDS011;66010;52.084;5.412;2023-11-21T00:42:26;5.97;;;2.83;;
65924;SDS011;66010;52.084;5.412;2023-11-21T00:44:53;6.80;;;2.95;;
65924;SDS011;66010;52.084;5.412;2023-11-21T00:47:20;7.28;;;3.10;;
65924;SDS011;66010;52.084;5.412;2023-11-21T00:49:47;6.63;;;2.80;;
65924;SDS011;66010;52.084;5.412;2023-11-21T00:52:15;6.82;;;2.85;;
65924;SDS011;66010;52.084;5.412;2023-11-21T00:54:42;7.57;;;3.00;;
65924;SDS011;66010;52.084;5.412;2023-11-21T00:57:08;6.82;;;2.85;;
65924;SDS011;66010;52.084;5.412;2023-11-21T00:59:35;7.47;;;3.47;;
65924;SDS011;66010;52.084;5.412;2023-11-21T01:02:01;6.63;;;2.88;;
65924;SDS011;66010;52.084;5.412;2023-11-21T01:04:28;5.95;;;2.67;;
65924;SDS011;66010;52.084;5.412;2023-11-21T01:06:54;7.03;;;3.03;;
65924;SDS011;66010;52.084;5.412;2023-11-21T01:09:21;7.50;;;3.00;;
65924;SDS011;66010;52.084;5.412;2023-11-21T01:11:47;5.00;;;2.53;;
65924;SDS011;66010;52.084;5.412;2023-11-21T01:14:14;7.47;;;3.13;;
65924;SDS011;66010;52.084;5.412;2023-11-21T01:16:40;7.57;;;3.10;;
65924;SDS011;66010;52.084;5.412;2023-11-21T01:19:07;6.93;;;2.67;;
65924;SDS011;66010;52.084;5.412;2023-11-21T01:21:34;6.40;;;3.00;;
65924;SDS011;66010;52.084;5.412;2023-11-21T01:24:00;6.32;;;2.50;;
65924;SDS011;66010;52.084;5.412;2023-11-21T01:26:27;6.10;;;2.70;;
65924;SDS011;66010;52.084;5.412;2023-11-21T01:28:54;6.68;;;2.80;;
65924;SDS011;66010;52.084;5.412;2023-11-21T01:31:20;6.57;;;2.83;;
65924;SDS011;66010;52.084;5.412;2023-11-21T01:33:47;7.70;;;2.88;;
65924;SDS011;66010;52.084;5.412;2023-11-21T01:36:14;6.47;;;2.90;;
65924;SDS011;66010;52.084;5.412;2023-11-21T01:38:41;6.68;;;3.00;;
65924;SDS011;66010;52.084;5.412;2023-11-21T01:41:08;5.90;;;2.60;;
65924;SDS011;66010;52.084;5.412;2023-11-21T01:43:37;6.55;;;2.75;;
65924;SDS011;66010;52.084;5.412;2023-11-21T01:46:04;6.03;;;2.83;;
65924;SDS011;66010;52.084;5.412;2023-11-21T01:48:32;6.45;;;2.78;;
65924;SDS011;66010;52.084;5.412;2023-11-21T01:51:00;6.07;;;2.70;;
65924;SDS011;66010;52.084;5.412;2023-11-21T01:53:26;6.93;;;2.72;;
65924;SDS011;66010;52.084;5.412;2023-11-21T01:55:54;6.05;;;2.72;;
65924;SDS011;66010;52.084;5.412;2023-11-21T01:58:25;5.53;;;2.47;;
65924;SDS011;66010;52.084;5.412;2023-11-21T02:00:51;5.53;;;2.60;;
65924;SDS011;66010;52.084;5.412;2023-11-21T02:03:21;5.28;;;2.40;;
65924;SDS011;66010;52.084;5.412;2023-11-21T02:05:47;6.40;;;2.72;;
65924;SDS011;66010;52.084;5.412;2023-11-21T02:08:14;6.47;;;2.67;;
65924;SDS011;66010;52.084;5.412;2023-11-21T02:10:42;6.25;;;2.55;;
65924;SDS011;66010;52.084;5.412;2023-11-21T02:13:08;5.32;;;2.58;;
65924;SDS011;66010;52.084;5.412;2023-11-21T02:15:35;6.30;;;2.47;;
65924;SDS011;66010;52.084;5.412;2023-11-21T02:18:02;6.80;;;2.70;;
65924;SDS011;66010;52.084;5.412;2023-11-21T02:20:29;6.00;;;2.17;;
65924;SDS011;66010;52.084;5.412;2023-11-21T02:22:56;6.65;;;2.53;;
65924;SDS011;66010;52.084;5.412;2023-11-21T02:25:27;5.88;;;2.40;;
65924;SDS011;66010;52.084;5.412;2023-11-21T02:27:55;7.63;;;2.90;;
65924;SDS011;66010;52.084;5.412;2023-11-21T02:30:22;4.85;;;2.38;;
65924;SDS011;66010;52.084;5.412;2023-11-21T02:32:48;7.32;;;2.67;;
65924;SDS011;66010;52.084;5.412;2023-11-21T02:35:15;5.60;;;2.45;;
65924;SDS011;66010;52.084;5.412;2023-11-21T02:37:42;5.43;;;2.40;;
65924;SDS011;66010;52.084;5.412;2023-11-21T02:40:09;5.80;;;2.47;;
65924;SDS011;66010;52.084;5.412;2023-11-21T02:42:36;5.20;;;2.35;;
65924;SDS011;66010;52.084;5.412;2023-11-21T02:45:02;4.78;;;2.20;;
65924;SDS011;66010;52.084;5.412;2023-11-21T02:47:29;6.47;;;2.72;;
65924;SDS011;66010;52.084;5.412;2023-11-21T02:49:55;6.05;;;2.38;;
65924;SDS011;66010;52.084;5.412;2023-11-21T02:52:22;4.93;;;2.28;;
65924;SDS011;66010;52.084;5.412;2023-11-21T02:54:49;6.15;;;2.45;;
65924;SDS011;66010;52.084;5.412;2023-11-21T02:57:15;5.28;;;2.40;;
65924;SDS011;66010;52.084;5.412;2023-11-21T02:59:42;5.30;;;2.25;;
65924;SDS011;66010;52.084;5.412;2023-11-21T03:02:08;5.45;;;2.30;;
65924;SDS011;66010;52.084;5.412;2023-11-21T03:04:35;5.82;;;2.55;;
65924;SDS011;66010;52.084;5.412;2023-11-21T03:07:01;5.88;;;2.55;;
65924;SDS011;66010;52.084;5.412;2023-11-21T03:09:29;6.30;;;2.42;;
65924;SDS011;66010;52.084;5.412;2023-11-21T03:11:55;5.45;;;2.28;;
65924;SDS011;66010;52.084;5.412;2023-11-21T03:14:22;5.10;;;2.13;;
65924;SDS011;66010;52.084;5.412;2023-11-21T03:16:48;5.45;;;2.30;;
65924;SDS011;66010;52.084;5.412;2023-11-21T03:19:15;5.45;;;2.30;;
65924;SDS011;66010;52.084;5.412;2023-11-21T03:21:42;6.32;;;2.70;;
65924;SDS011;66010;52.084;5.412;2023-11-21T03:24:08;4.47;;;2.15;;
65924;SDS011;66010;52.084;5.412;2023-11-21T03:26:35;5.10;;;2.13;;
65924;SDS011;66010;52.084;5.412;2023-11-21T03:29:04;4.88;;;2.20;;
65924;SDS011;66010;52.084;5.412;2023-11-21T03:31:31;6.22;;;2.35;;
65924;SDS011;66010;52.084;5.412;2023-11-21T03:33:58;5.38;;;2.30;;
65924;SDS011;66010;52.084;5.412;2023-11-21T03:36:24;6.47;;;2.45;;
65924;SDS011;66010;52.084;5.412;2023-11-21T03:38:52;4.75;;;2.13;;
65924;SDS011;66010;52.084;5.412;2023-11-21T03:41:18;5.90;;;2.22;;
65924;SDS011;66010;52.084;5.412;2023-11-21T03:43:45;5.88;;;2.28;;
65924;SDS011;66010;52.084;5.412;2023-11-21T03:46:13;5.72;;;2.38;;
65924;SDS011;66010;52.084;5.412;2023-11-21T03:48:39;5.78;;;2.40;;
65924;SDS011;66010;52.084;5.412;2023-11-21T03:51:06;5.50;;;2.25;;
65924;SDS011;66010;52.084;5.412;2023-11-21T03:53:33;6.80;;;2.65;;
65924;SDS011;66010;52.084;5.412;2023-11-21T03:56:02;5.53;;;2.50;;
65924;SDS011;66010;52.084;5.412;2023-11-21T03:58:29;5.75;;;2.40;;
65924;SDS011;66010;52.084;5.412;2023-11-21T04:00:55;5.07;;;2.22;;
65924;SDS011;66010;52.084;5.412;2023-11-21T04:03:22;4.57;;;2.00;;
65924;SDS011;66010;52.084;5.412;2023-11-21T04:05:48;3.90;;;1.90;;
65924;SDS011;66010;52.084;5.412;2023-11-21T04:08:15;5.82;;;2.35;;
65924;SDS011;66010;52.084;5.412;2023-11-21T04:10:41;6.32;;;2.30;;
65924;SDS011;66010;52.084;5.412;2023-11-21T04:13:08;5.90;;;2.25;;
65924;SDS011;66010;52.084;5.412;2023-11-21T04:15:35;4.07;;;2.15;;
65924;SDS011;66010;52.084;5.412;2023-11-21T04:18:01;5.07;;;2.25;;
65924;SDS011;66010;52.084;5.412;2023-11-21T04:20:28;5.60;;;2.28;;
65924;SDS011;66010;52.084;5.412;2023-11-21T04:22:54;5.93;;;2.38;;
65924;SDS011;66010;52.084;5.412;2023-11-21T04:25:21;5.32;;;2.33;;
65924;SDS011;66010;52.084;5.412;2023-11-21T04:27:49;4.53;;;2.05;;
65924;SDS011;66010;52.084;5.412;2023-11-21T04:30:16;5.03;;;2.00;;
65924;SDS011;66010;52.084;5.412;2023-11-21T04:32:42;6.57;;;2.20;;
65924;SDS011;66010;52.084;5.412;2023-11-21T04:35:09;6.40;;;2.40;;
65924;SDS011;66010;52.084;5.412;2023-11-21T04:37:35;4.72;;;2.03;;
65924;SDS011;66010;52.084;5.412;2023-11-21T04:40:02;4.35;;;2.00;;
65924;SDS011;66010;52.084;5.412;2023-11-21T04:42:35;4.95;;;2.10;;
65924;SDS011;66010;52.084;5.412;2023-11-21T04:45:05;5.20;;;2.20;;
65924;SDS011;66010;52.084;5.412;2023-11-21T04:47:35;4.55;;;2.00;;
65924;SDS011;66010;52.084;5.412;2023-11-21T04:50:02;5.90;;;2.20;;
65924;SDS011;66010;52.084;5.412;2023-11-21T04:52:29;5.50;;;2.20;;
65924;SDS011;66010;52.084;5.412;2023-11-21T04:54:56;5.47;;;2.22;;
65924;SDS011;66010;52.084;5.412;2023-11-21T04:57:24;4.40;;;2.00;;
65924;SDS011;66010;52.084;5.412;2023-11-21T04:59:51;4.97;;;2.22;;
65924;SDS011;66010;52.084;5.412;2023-11-21T05:02:17;4.45;;;1.95;;
65924;SDS011;66010;52.084;5.412;2023-11-21T05:05:01;4.78;;;2.00;;
65924;SDS011;66010;52.084;5.412;2023-11-21T05:07:27;4.45;;;2.08;;
65924;SDS011;66010;52.084;5.412;2023-11-21T05:09:57;4.07;;;1.95;;
65924;SDS011;66010;52.084;5.412;2023-11-21T05:12:24;4.65;;;1.83;;
65924;SDS011;66010;52.084;5.412;2023-11-21T05:14:51;5.72;;;1.90;;
65924;SDS011;66010;52.084;5.412;2023-11-21T05:17:17;5.18;;;2.00;;
65924;SDS011;66010;52.084;5.412;2023-11-21T05:19:44;5.32;;;2.17;;
65924;SDS011;66010;52.084;5.412;2023-11-21T05:22:15;4.55;;;1.98;;
65924;SDS011;66010;52.084;5.412;2023-11-21T05:24:41;4.30;;;2.10;;
65924;SDS011;66010;52.084;5.412;2023-11-21T05:27:08;4.15;;;2.10;;
65924;SDS011;66010;52.084;5.412;2023-11-21T05:32:04;4.82;;;2.00;;
65924;SDS011;66010;52.084;5.412;2023-11-21T05:34:30;4.50;;;1.90;;
65924;SDS011;66010;52.084;5.412;2023-11-21T05:36:57;4.93;;;1.90;;
65924;SDS011;66010;52.084;5.412;2023-11-21T05:41:51;5.57;;;1.90;;
65924;SDS011;66010;52.084;5.412;2023-11-21T05:44:17;4.60;;;1.88;;
65924;SDS011;66010;52.084;5.412;2023-11-21T05:46:44;5.05;;;1.90;;
65924;SDS011;66010;52.084;5.412;2023-11-21T05:49:11;5.45;;;2.08;;
65924;SDS011;66010;52.084;5.412;2023-11-21T05:51:37;3.50;;;1.75;;
65924;SDS011;66010;52.084;5.412;2023-11-21T05:54:04;5.00;;;1.98;;
65924;SDS011;66010;52.084;5.412;2023-11-21T05:56:31;4.55;;;2.00;;
65924;SDS011;66010;52.084;5.412;2023-11-21T05:58:58;3.90;;;1.75;;
65924;SDS011;66010;52.084;5.412;2023-11-21T06:01:25;6.90;;;2.08;;
65924;SDS011;66010;52.084;5.412;2023-11-21T06:03:54;3.30;;;1.80;;
65924;SDS011;66010;52.084;5.412;2023-11-21T06:06:21;4.20;;;1.75;;
65924;SDS011;66010;52.084;5.412;2023-11-21T06:08:51;4.05;;;1.77;;
65924;SDS011;66010;52.084;5.412;2023-11-21T06:11:18;5.88;;;2.10;;
65924;SDS011;66010;52.084;5.412;2023-11-21T06:13:44;4.93;;;2.03;;
65924;SDS011;66010;52.084;5.412;2023-11-21T06:16:11;4.38;;;1.90;;
65924;SDS011;66010;52.084;5.412;2023-11-21T06:18:42;4.95;;;1.90;;
65924;SDS011;66010;52.084;5.412;2023-11-21T06:21:09;5.65;;;2.10;;
65924;SDS011;66010;52.084;5.412;2023-11-21T06:23:36;3.85;;;1.80;;
65924;SDS011;66010;52.084;5.412;2023-11-21T06:26:02;4.03;;;1.60;;
65924;SDS011;66010;52.084;5.412;2023-11-21T06:28:30;5.13;;;1.70;;
65924;SDS011;66010;52.084;5.412;2023-11-21T06:30:57;4.18;;;1.90;;
65924;SDS011;66010;52.084;5.412;2023-11-21T06:33:31;4.65;;;1.98;;
65924;SDS011;66010;52.084;5.412;2023-11-21T06:35:58;3.83;;;1.58;;
65924;SDS011;66010;52.084;5.412;2023-11-21T06:38:24;4.82;;;1.80;;
65924;SDS011;66010;52.084;5.412;2023-11-21T06:40:56;4.70;;;1.80;;
65924;SDS011;66010;52.084;5.412;2023-11-21T06:43:24;4.25;;;2.00;;
65924;SDS011;66010;52.084;5.412;2023-11-21T06:45:51;4.75;;;1.85;;
65924;SDS011;66010;52.084;5.412;2023-11-21T06:48:17;4.03;;;1.60;;
65924;SDS011;66010;52.084;5.412;2023-11-21T06:50:44;3.70;;;1.70;;
65924;SDS011;66010;52.084;5.412;2023-11-21T06:53:10;5.20;;;1.80;;
65924;SDS011;66010;52.084;5.412;2023-11-21T06:55:37;3.80;;;1.52;;
65924;SDS011;66010;52.084;5.412;2023-11-21T06:58:03;4.25;;;1.92;;
65924;SDS011;66010;52.084;5.412;2023-11-21T07:00:31;5.50;;;1.95;;
65924;SDS011;66010;52.084;5.412;2023-11-21T07:02:57;4.47;;;1.73;;
65924;SDS011;66010;52.084;5.412;2023-11-21T07:05:24;5.20;;;1.80;;
65924;SDS011;66010;52.084;5.412;2023-11-21T07:07:50;4.68;;;1.98;;
65924;SDS011;66010;52.084;5.412;2023-11-21T07:10:20;3.53;;;1.65;;
65924;SDS011;66010;52.084;5.412;2023-11-21T07:15:14;4.82;;;1.63;;
65924;SDS011;66010;52.084;5.412;2023-11-21T07:17:41;4.10;;;1.50;;
65924;SDS011;66010;52.084;5.412;2023-11-21T07:20:07;4.13;;;1.70;;
65924;SDS011;66010;52.084;5.412;2023-11-21T07:22:34;5.68;;;1.80;;
65924;SDS011;66010;52.084;5.412;2023-11-21T07:25:01;3.53;;;1.70;;
65924;SDS011;66010;52.084;5.412;2023-11-21T07:27:28;4.38;;;1.60;;
65924;SDS011;66010;52.084;5.412;2023-11-21T07:29:54;4.10;;;1.70;;
65924;SDS011;66010;52.084;5.412;2023-11-21T07:32:21;4.78;;;1.90;;
65924;SDS011;66010;52.084;5.412;2023-11-21T07:34:48;2.90;;;1.40;;
65924;SDS011;66010;52.084;5.412;2023-11-21T07:37:14;3.08;;;1.55;;
65924;SDS011;66010;52.084;5.412;2023-11-21T07:39:41;2.53;;;1.50;;
65924;SDS011;66010;52.084;5.412;2023-11-21T07:42:08;5.15;;;1.80;;
65924;SDS011;66010;52.084;5.412;2023-11-21T07:44:35;4.07;;;1.60;;
65924;SDS011;66010;52.084;5.412;2023-11-21T07:47:02;3.47;;;1.58;;
65924;SDS011;66010;52.084;5.412;2023-11-21T07:49:28;4.40;;;1.60;;
65924;SDS011;66010;52.084;5.412;2023-11-21T07:51:55;4.40;;;1.63;;
65924;SDS011;66010;52.084;5.412;2023-11-21T07:54:21;4.97;;;1.70;;
65924;SDS011;66010;52.084;5.412;2023-11-21T07:56:48;4.30;;;1.60;;
65924;SDS011;66010;52.084;5.412;2023-11-21T07:59:14;3.75;;;1.63;;
65924;SDS011;66010;52.084;5.412;2023-11-21T08:01:41;2.90;;;1.60;;
65924;SDS011;66010;52.084;5.412;2023-11-21T08:04:09;4.50;;;1.83;;
65924;SDS011;66010;52.084;5.412;2023-11-21T08:06:36;3.55;;;1.60;;
65924;SDS011;66010;52.084;5.412;2023-11-21T08:09:03;4.25;;;1.80;;
65924;SDS011;66010;52.084;5.412;2023-11-21T08:11:29;3.20;;;1.50;;
65924;SDS011;66010;52.084;5.412;2023-11-21T08:13:58;3.20;;;1.48;;
65924;SDS011;66010;52.084;5.412;2023-11-21T08:16:25;4.00;;;1.67;;
65924;SDS011;66010;52.084;5.412;2023-11-21T08:18:52;3.15;;;1.60;;
65924;SDS011;66010;52.084;5.412;2023-11-21T08:21:18;3.50;;;1.55;;
65924;SDS011;66010;52.084;5.412;2023-11-21T08:23:45;3.67;;;1.50;;
65924;SDS011;66010;52.084;5.412;2023-11-21T08:26:15;4.90;;;1.80;;
65924;SDS011;66010;52.084;5.412;2023-11-21T08:28:42;3.13;;;1.42;;
65924;SDS011;66010;52.084;5.412;2023-11-21T08:31:08;4.57;;;1.60;;
65924;SDS011;66010;52.084;5.412;2023-11-21T08:33:37;2.45;;;1.40;;
65924;SDS011;66010;52.084;5.412;2023-11-21T08:36:10;3.30;;;1.50;;
65924;SDS011;66010;52.084;5.412;2023-11-21T08:38:38;3.60;;;1.50;;
65924;SDS011;66010;52.084;5.412;2023-11-21T08:41:05;4.28;;;1.55;;
65924;SDS011;66010;52.084;5.412;2023-11-21T08:43:34;3.13;;;1.30;;
65924;SDS011;66010;52.084;5.412;2023-11-21T08:46:01;3.80;;;1.40;;
65924;SDS011;66010;52.084;5.412;2023-11-21T08:48:27;2.88;;;1.48;;
65924;SDS011;66010;52.084;5.412;2023-11-21T08:50:56;3.05;;;1.40;;
65924;SDS011;66010;52.084;5.412;2023-11-21T08:53:23;4.30;;;1.38;;
65924;SDS011;66010;52.084;5.412;2023-11-21T08:55:49;2.92;;;1.42;;
65924;SDS011;66010;52.084;5.412;2023-11-21T08:58:16;2.80;;;1.38;;
65924;SDS011;66010;52.084;5.412;2023-11-21T09:00:43;3.72;;;1.50;;
65924;SDS011;66010;52.084;5.412;2023-11-21T09:03:12;3.15;;;1.40;;
65924;SDS011;66010;52.084;5.412;2023-11-21T09:05:39;2.33;;;1.20;;
65924;SDS011;66010;52.084;5.412;2023-11-21T09:08:06;3.70;;;1.38;;
65924;SDS011;66010;52.084;5.412;2023-11-21T09:10:33;2.03;;;1.23;;
65924;SDS011;66010;52.084;5.412;2023-11-21T09:13:02;2.33;;;1.30;;
65924;SDS011;66010;52.084;5.412;2023-11-21T09:15:28;3.25;;;1.33;;
65924;SDS011;66010;52.084;5.412;2023-11-21T09:17:55;3.53;;;1.27;;
65924;SDS011;66010;52.084;5.412;2023-11-21T09:20:22;2.20;;;1.13;;
65924;SDS011;66010;52.084;5.412;2023-11-21T09:22:49;2.33;;;1.20;;
65924;SDS011;66010;52.084;5.412;2023-11-21T09:25:16;2.95;;;1.40;;
65924;SDS011;66010;52.084;5.412;2023-11-21T09:27:42;2.83;;;1.42;;
65924;SDS011;66010;52.084;5.412;2023-11-21T09:30:09;2.40;;;1.20;;
65924;SDS011;66010;52.084;5.412;2023-11-21T09:32:39;2.90;;;1.50;;
65924;SDS011;66010;52.084;5.412;2023-11-21T09:35:07;2.97;;;1.40;;
65924;SDS011;66010;52.084;5.412;2023-11-21T09:37:36;3.03;;;1.40;;
65924;SDS011;66010;52.084;5.412;2023-11-21T09:40:05;2.70;;;1.30;;
65924;SDS011;66010;52.084;5.412;2023-11-21T09:42:38;3.00;;;1.33;;
65924;SDS011;66010;52.084;5.412;2023-11-21T09:45:17;2.33;;;1.30;;
65924;SDS011;66010;52.084;5.412;2023-11-21T09:47:46;2.10;;;1.20;;
65924;SDS011;66010;52.084;5.412;2023-11-21T09:50:14;2.55;;;1.35;;
65924;SDS011;66010;52.084;5.412;2023-11-21T09:55:34;3.45;;;1.48;;
65924;SDS011;66010;52.084;5.412;2023-11-21T09:58:05;4.03;;;1.40;;
65924;SDS011;66010;52.084;5.412;2023-11-21T10:00:34;2.22;;;1.20;;
65924;SDS011;66010;52.084;5.412;2023-11-21T10:03:01;2.80;;;1.30;;
65924;SDS011;66010;52.084;5.412;2023-11-21T10:05:29;3.30;;;1.52;;
65924;SDS011;66010;52.084;5.412;2023-11-21T10:07:56;2.80;;;1.30;;
65924;SDS011;66010;52.084;5.412;2023-11-21T10:10:24;3.42;;;1.50;;
65924;SDS011;66010;52.084;5.412;2023-11-21T10:12:53;3.80;;;1.40;;
65924;SDS011;66010;52.084;5.412;2023-11-21T10:15:22;2.22;;;1.15;;
65924;SDS011;66010;52.084;5.412;2023-11-21T10:17:49;3.22;;;1.40;;
65924;SDS011;66010;52.084;5.412;2023-11-21T10:20:15;3.45;;;1.40;;
65924;SDS011;66010;52.084;5.412;2023-11-21T10:22:42;3.78;;;1.48;;
65924;SDS011;66010;52.084;5.412;2023-11-21T10:25:09;3.20;;;1.40;;
65924;SDS011;66010;52.084;5.412;2023-11-21T10:27:36;3.75;;;1.38;;
65924;SDS011;66010;52.084;5.412;2023-11-21T10:30:05;2.70;;;1.40;;
65924;SDS011;66010;52.084;5.412;2023-11-21T10:32:32;3.67;;;1.42;;
65924;SDS011;66010;52.084;5.412;2023-11-21T10:34:59;3.30;;;1.40;;
65924;SDS011;66010;52.084;5.412;2023-11-21T10:37:32;3.20;;;1.27;;
65924;SDS011;66010;52.084;5.412;2023-11-21T10:39:59;3.30;;;1.50;;
65924;SDS011;66010;52.084;5.412;2023-11-21T10:42:26;3.63;;;1.50;;
65924;SDS011;66010;52.084;5.412;2023-11-21T10:44:54;3.67;;;1.50;;
65924;SDS011;66010;52.084;5.412;2023-11-21T10:47:21;3.70;;;1.40;;
65924;SDS011;66010;52.084;5.412;2023-11-21T10:49:48;2.20;;;1.20;;
65924;SDS011;66010;52.084;5.412;2023-11-21T10:52:15;3.42;;;1.20;;
65924;SDS011;66010;52.084;5.412;2023-11-21T10:54:43;3.05;;;1.42;;
65924;SDS011;66010;52.084;5.412;2023-11-21T10:57:10;2.22;;;1.20;;
65924;SDS011;66010;52.084;5.412;2023-11-21T10:59:36;2.95;;;1.33;;
65924;SDS011;66010;52.084;5.412;2023-11-21T11:02:09;2.42;;;1.20;;
65924;SDS011;66010;52.084;5.412;2023-11-21T11:04:41;2.42;;;1.20;;
65924;SDS011;66010;52.084;5.412;2023-11-21T11:07:08;2.95;;;1.40;;
65924;SDS011;66010;52.084;5.412;2023-11-21T11:09:38;2.35;;;1.20;;
65924;SDS011;66010;52.084;5.412;2023-11-21T11:12:05;2.20;;;1.25;;
65924;SDS011;66010;52.084;5.412;2023-11-21T11:14:32;2.58;;;1.23;;
65924;SDS011;66010;52.084;5.412;2023-11-21T11:16:59;2.40;;;1.30;;
65924;SDS011;66010;52.084;5.412;2023-11-21T11:19:27;2.63;;;1.20;;
65924;SDS011;66010;52.084;5.412;2023-11-21T11:37:58;2.38;;;1.20;;
65924;SDS011;66010;52.084;5.412;2023-11-21T11:40:38;3.60;;;1.30;;
65924;SDS011;66010;52.084;5.412;2023-11-21T11:43:05;2.47;;;1.20;;
65924;SDS011;66010;52.084;5.412;2023-11-21T11:45:34;3.25;;;1.40;;
65924;SDS011;66010;52.084;5.412;2023-11-21T11:48:01;3.55;;;1.30;;
65924;SDS011;66010;52.084;5.412;2023-11-21T11:50:29;2.75;;;1.30;;
65924;SDS011;66010;52.084;5.412;2023-11-21T11:53:11;2.75;;;1.20;;
65924;SDS011;66010;52.084;5.412;2023-11-21T11:55:38;2.97;;;1.25;;
65924;SDS011;66010;52.084;5.412;2023-11-21T11:58:05;3.80;;;1.30;;
65924;SDS011;66010;52.084;5.412;2023-11-21T12:03:00;3.05;;;1.30;;
65924;SDS011;66010;52.084;5.412;2023-11-21T12:05:31;2.72;;;1.20;;
65924;SDS011;66010;52.084;5.412;2023-11-21T12:10:42;2.25;;;1.10;;
65924;SDS011;66010;52.084;5.412;2023-11-21T12:13:09;2.58;;;1.20;;
65924;SDS011;66010;52.084;5.412;2023-11-21T12:15:38;3.05;;;1.20;;
65924;SDS011;66010;52.084;5.412;2023-11-21T12:18:07;3.60;;;1.30;;
65924;SDS011;66010;52.084;5.412;2023-11-21T12:20:34;2.67;;;1.30;;
65924;SDS011;66010;52.084;5.412;2023-11-21T12:23:06;3.13;;;1.20;;
65924;SDS011;66010;52.084;5.412;2023-11-21T12:25:33;3.28;;;1.20;;
65924;SDS011;66010;52.084;5.412;2023-11-21T12:28:01;3.33;;;1.27;;
65924;SDS011;66010;52.084;5.412;2023-11-21T12:30:29;2.53;;;1.10;;
65924;SDS011;66010;52.084;5.412;2023-11-21T12:32:59;3.13;;;1.30;;
65924;SDS011;66010;52.084;5.412;2023-11-21T12:37:56;2.17;;;1.10;;
65924;SDS011;66010;52.084;5.412;2023-11-21T12:40:26;4.03;;;1.45;;
65924;SDS011;66010;52.084;5.412;2023-11-21T12:42:53;2.30;;;1.10;;
65924;SDS011;66010;52.084;5.412;2023-11-21T12:45:23;3.45;;;1.40;;
65924;SDS011;66010;52.084;5.412;2023-11-21T12:48:02;2.53;;;1.20;;
65924;SDS011;66010;52.084;5.412;2023-11-21T12:50:30;2.53;;;1.17;;
65924;SDS011;66010;52.084;5.412;2023-11-21T12:53:02;2.92;;;1.38;;
65924;SDS011;66010;52.084;5.412;2023-11-21T12:55:30;2.10;;;1.20;;
65924;SDS011;66010;52.084;5.412;2023-11-21T12:57:57;2.80;;;1.20;;
65924;SDS011;66010;52.084;5.412;2023-11-21T13:00:34;2.20;;;1.20;;
65924;SDS011;66010;52.084;5.412;2023-11-21T13:03:06;1.83;;;1.15;;
65924;SDS011;66010;52.084;5.412;2023-11-21T13:05:34;1.75;;;1.10;;
65924;SDS011;66010;52.084;5.412;2023-11-21T13:10:29;2.83;;;1.20;;
65924;SDS011;66010;52.084;5.412;2023-11-21T13:12:58;2.70;;;1.30;;
65924;SDS011;66010;52.084;5.412;2023-11-21T13:15:24;2.13;;;1.10;;
65924;SDS011;66010;52.084;5.412;2023-11-21T13:17:51;3.72;;;1.50;;
65924;SDS011;66010;52.084;5.412;2023-11-21T13:20:20;3.33;;;1.33;;
65924;SDS011;66010;52.084;5.412;2023-11-21T13:22:50;2.38;;;1.20;;
65924;SDS011;66010;52.084;5.412;2023-11-21T13:25:20;2.63;;;1.20;;
65924;SDS011;66010;52.084;5.412;2023-11-21T13:27:47;2.88;;;1.33;;
65924;SDS011;66010;52.084;5.412;2023-11-21T13:30:14;2.55;;;1.20;;
65924;SDS011;66010;52.084;5.412;2023-11-21T13:32:49;2.67;;;1.20;;
65924;SDS011;66010;52.084;5.412;2023-11-21T13:35:18;2.55;;;1.15;;
65924;SDS011;66010;52.084;5.412;2023-11-21T13:37:57;3.05;;;1.40;;
65924;SDS011;66010;52.084;5.412;2023-11-21T13:40:26;2.55;;;1.25;;
65924;SDS011;66010;52.084;5.412;2023-11-21T13:42:53;2.05;;;1.10;;
65924;SDS011;66010;52.084;5.412;2023-11-21T13:45:23;3.15;;;1.30;;
65924;SDS011;66010;52.084;5.412;2023-11-21T13:47:50;2.00;;;1.10;;
65924;SDS011;66010;52.084;5.412;2023-11-21T13:50:24;2.38;;;1.30;;
65924;SDS011;66010;52.084;5.412;2023-11-21T13:52:55;2.30;;;1.15;;
65924;SDS011;66010;52.084;5.412;2023-11-21T13:55:22;1.60;;;1.10;;
65924;SDS011;66010;52.084;5.412;2023-11-21T13:57:51;3.17;;;1.33;;
65924;SDS011;66010;52.084;5.412;2023-11-21T14:00:18;2.03;;;1.13;;
65924;SDS011;66010;52.084;5.412;2023-11-21T14:03:04;1.60;;;1.13;;
65924;SDS011;66010;52.084;5.412;2023-11-21T14:05:34;2.20;;;1.10;;
65924;SDS011;66010;52.084;5.412;2023-11-21T14:08:01;2.40;;;1.30;;
65924;SDS011;66010;52.084;5.412;2023-11-21T14:10:31;3.05;;;1.17;;
65924;SDS011;66010;52.084;5.412;2023-11-21T14:13:09;3.10;;;1.20;;
65924;SDS011;66010;52.084;5.412;2023-11-21T14:15:39;2.30;;;1.10;;
65924;SDS011;66010;52.084;5.412;2023-11-21T14:18:09;2.60;;;1.30;;
65924;SDS011;66010;52.084;5.412;2023-11-21T14:20:43;1.75;;;1.00;;
65924;SDS011;66010;52.084;5.412;2023-11-21T14:23:10;2.75;;;1.20;;
65924;SDS011;66010;52.084;5.412;2023-11-21T14:25:37;2.05;;;1.10;;
65924;SDS011;66010;52.084;5.412;2023-11-21T14:28:05;2.70;;;1.35;;
65924;SDS011;66010;52.084;5.412;2023-11-21T14:30:38;3.38;;;1.20;;
65924;SDS011;66010;52.084;5.412;2023-11-21T14:33:05;2.67;;;1.13;;
65924;SDS011;66010;52.084;5.412;2023-11-21T14:35:34;2.30;;;1.15;;
65924;SDS011;66010;52.084;5.412;2023-11-21T14:38:01;2.65;;;1.23;;
65924;SDS011;66010;52.084;5.412;2023-11-21T14:40:31;3.25;;;1.30;;
65924;SDS011;66010;52.084;5.412;2023-11-21T14:43:00;2.50;;;1.20;;
65924;SDS011;66010;52.084;5.412;2023-11-21T14:45:26;3.10;;;1.30;;
65924;SDS011;66010;52.084;5.412;2023-11-21T14:47:53;2.85;;;1.30;;
65924;SDS011;66010;52.084;5.412;2023-11-21T14:50:32;3.38;;;1.40;;
65924;SDS011;66010;52.084;5.412;2023-11-21T14:53:15;3.05;;;1.40;;
65924;SDS011;66010;52.084;5.412;2023-11-21T14:55:42;3.50;;;1.30;;
65924;SDS011;66010;52.084;5.412;2023-11-21T14:58:28;2.92;;;1.30;;
65924;SDS011;66010;52.084;5.412;2023-11-21T15:03:26;2.92;;;1.40;;
65924;SDS011;66010;52.084;5.412;2023-11-21T15:06:00;4.05;;;1.58;;
65924;SDS011;66010;52.084;5.412;2023-11-21T15:08:48;4.40;;;1.60;;
65924;SDS011;66010;52.084;5.412;2023-11-21T15:11:19;3.90;;;1.50;;
65924;SDS011;66010;52.084;5.412;2023-11-21T15:13:50;3.45;;;1.70;;
65924;SDS011;66010;52.084;5.412;2023-11-21T15:16:18;4.60;;;1.60;;
65924;SDS011;66010;52.084;5.412;2023-11-21T15:18:45;3.70;;;1.60;;
65924;SDS011;66010;52.084;5.412;2023-11-21T15:21:11;3.70;;;1.67;;
65924;SDS011;66010;52.084;5.412;2023-11-21T15:23:38;3.55;;;1.50;;
65924;SDS011;66010;52.084;5.412;2023-11-21T15:26:05;3.78;;;1.80;;
65924;SDS011;66010;52.084;5.412;2023-11-21T15:28:31;4.95;;;2.00;;
65924;SDS011;66010;52.084;5.412;2023-11-21T15:30:59;4.20;;;1.60;;